sensor_id;sensor_type;location;lat;lon;timestamp;P1;durP1;ratioP1;P2;durP2;ratioP2
80278;SDS011;70683;52.492;13.416;2023-12-20T00:00:05;7.28;;;5.47;;
80278;SDS011;70683;52.492;13.416;2023-12-20T00:02:33;9.05;;;5.80;;
80278;SDS011;70683;52.492;13.416;2023-12-20T00:05:00;7.15;;;5.72;;
80278;SDS011;70683;52.492;13.416;2023-12-20T00:07:27;9.10;;;5.78;;
80278;SDS011;70683;52.492;13.416;2023-12-20T00:09:53;10.50;;;6.87;;
80278;SDS011;70683;52.492;13.416;2023-12-20T00:12:20;12.55;;;7.28;;
80278;SDS011;70683;52.492;13.416;2023-12-20T00:14:46;10.43;;;6.62;;
80278;SDS011;70683;52.492;13.416;2023-12-20T00:17:13;8.78;;;5.65;;
80278;SDS011;70683;52.492;13.416;2023-12-20T00:19:40;8.95;;;6.22;;
80278;SDS011;70683;52.492;13.416;2023-12-20T00:22:06;7.92;;;6.10;;
80278;SDS011;70683;52.492;13.416;2023-12-20T00:24:33;10.90;;;6.37;;
80278;SDS011;70683;52.492;13.416;2023-12-20T00:26:59;8.85;;;6.15;;
80278;SDS011;70683;52.492;13.416;2023-12-20T00:29:26;10.08;;;5.80;;
80278;SDS011;70683;52.492;13.416;2023-12-20T00:31:53;14.28;;;6.20;;
80278;SDS011;70683;52.492;13.416;2023-12-20T00:34:19;8.05;;;6.08;;
80278;SDS011;70683;52.492;13.416;2023-12-20T00:36:46;7.22;;;5.50;;
80278;SDS011;70683;52.492;13.416;2023-12-20T00:39:13;8.15;;;5.55;;
80278;SDS011;70683;52.492;13.416;2023-12-20T00:41:40;9.20;;;6.00;;
80278;SDS011;70683;52.492;13.416;2023-12-20T00:44:06;8.30;;;5.90;;
80278;SDS011;70683;52.492;13.416;2023-12-20T00:46:33;7.70;;;6.10;;
80278;SDS011;70683;52.492;13.416;2023-12-20T00:48:59;8.65;;;5.67;;
80278;SDS011;70683;52.492;13.416;2023-12-20T00:51:26;6.83;;;4.83;;
80278;SDS011;70683;52.492;13.416;2023-12-20T00:53:53;7.25;;;5.58;;
80278;SDS011;70683;52.492;13.416;2023-12-20T00:56:20;5.65;;;4.72;;
80278;SDS011;70683;52.492;13.416;2023-12-20T00:58:47;7.20;;;5.22;;
80278;SDS011;70683;52.492;13.416;2023-12-20T01:01:14;6.67;;;4.70;;
80278;SDS011;70683;52.492;13.416;2023-12-20T01:03:41;6.33;;;5.28;;
80278;SDS011;70683;52.492;13.416;2023-12-20T01:06:07;5.28;;;4.28;;
80278;SDS011;70683;52.492;13.416;2023-12-20T01:08:34;5.70;;;4.72;;
80278;SDS011;70683;52.492;13.416;2023-12-20T01:11:04;5.35;;;4.58;;
80278;SDS011;70683;52.492;13.416;2023-12-20T01:13:31;6.37;;;4.95;;
80278;SDS011;70683;52.492;13.416;2023-12-20T01:15:58;6.20;;;5.30;;
80278;SDS011;70683;52.492;13.416;2023-12-20T01:18:24;6.12;;;4.78;;
80278;SDS011;70683;52.492;13.416;2023-12-20T01:20:51;6.62;;;5.12;;
80278;SDS011;70683;52.492;13.416;2023-12-20T01:23:18;5.45;;;4.42;;
80278;SDS011;70683;52.492;13.416;2023-12-20T01:25:44;8.15;;;5.42;;
80278;SDS011;70683;52.492;13.416;2023-12-20T01:28:11;6.22;;;5.17;;
80278;SDS011;70683;52.492;13.416;2023-12-20T01:30:37;6.45;;;5.33;;
80278;SDS011;70683;52.492;13.416;2023-12-20T01:33:04;6.10;;;4.80;;
80278;SDS011;70683;52.492;13.416;2023-12-20T01:35:31;6.25;;;4.87;;
80278;SDS011;70683;52.492;13.416;2023-12-20T01:37:58;6.62;;;5.00;;
80278;SDS011;70683;52.492;13.416;2023-12-20T01:40:24;6.00;;;5.00;;
80278;SDS011;70683;52.492;13.416;2023-12-20T01:42:58;5.65;;;4.45;;
80278;SDS011;70683;52.492;13.416;2023-12-20T01:45:26;5.37;;;4.30;;
80278;SDS011;70683;52.492;13.416;2023-12-20T01:47:54;5.00;;;4.25;;
80278;SDS011;70683;52.492;13.416;2023-12-20T01:50:22;5.95;;;4.60;;
80278;SDS011;70683;52.492;13.416;2023-12-20T01:52:49;4.75;;;4.10;;
80278;SDS011;70683;52.492;13.416;2023-12-20T01:55:18;5.55;;;4.37;;
80278;SDS011;70683;52.492;13.416;2023-12-20T01:57:46;4.60;;;3.70;;
80278;SDS011;70683;52.492;13.416;2023-12-20T02:00:13;6.00;;;4.83;;
80278;SDS011;70683;52.492;13.416;2023-12-20T02:02:41;5.65;;;4.42;;
80278;SDS011;70683;52.492;13.416;2023-12-20T02:05:09;6.17;;;4.65;;
80278;SDS011;70683;52.492;13.416;2023-12-20T02:07:36;5.10;;;4.17;;
80278;SDS011;70683;52.492;13.416;2023-12-20T02:10:03;5.33;;;4.33;;
80278;SDS011;70683;52.492;13.416;2023-12-20T02:12:30;5.50;;;4.28;;
80278;SDS011;70683;52.492;13.416;2023-12-20T02:14:57;5.85;;;4.72;;
80278;SDS011;70683;52.492;13.416;2023-12-20T02:17:24;5.78;;;4.45;;
80278;SDS011;70683;52.492;13.416;2023-12-20T02:19:51;5.22;;;4.20;;
80278;SDS011;70683;52.492;13.416;2023-12-20T02:22:17;6.22;;;4.25;;
80278;SDS011;70683;52.492;13.416;2023-12-20T02:24:44;5.17;;;3.80;;
80278;SDS011;70683;52.492;13.416;2023-12-20T02:27:11;5.95;;;4.85;;
80278;SDS011;70683;52.492;13.416;2023-12-20T02:29:38;7.78;;;4.33;;
80278;SDS011;70683;52.492;13.416;2023-12-20T02:32:05;6.65;;;4.78;;
80278;SDS011;70683;52.492;13.416;2023-12-20T02:34:32;6.15;;;4.50;;
80278;SDS011;70683;52.492;13.416;2023-12-20T02:36:58;5.03;;;3.90;;
80278;SDS011;70683;52.492;13.416;2023-12-20T02:39:25;4.60;;;3.60;;
80278;SDS011;70683;52.492;13.416;2023-12-20T02:41:51;4.00;;;3.60;;
80278;SDS011;70683;52.492;13.416;2023-12-20T02:44:18;3.65;;;3.30;;
80278;SDS011;70683;52.492;13.416;2023-12-20T02:46:45;6.25;;;5.00;;
80278;SDS011;70683;52.492;13.416;2023-12-20T02:49:11;7.87;;;5.05;;
80278;SDS011;70683;52.492;13.416;2023-12-20T02:51:38;6.97;;;4.62;;
80278;SDS011;70683;52.492;13.416;2023-12-20T02:54:05;5.85;;;4.53;;
80278;SDS011;70683;52.492;13.416;2023-12-20T02:56:32;6.83;;;5.10;;
80278;SDS011;70683;52.492;13.416;2023-12-20T02:58:59;8.00;;;5.25;;
80278;SDS011;70683;52.492;13.416;2023-12-20T03:01:26;7.42;;;4.72;;
80278;SDS011;70683;52.492;13.416;2023-12-20T03:03:54;6.12;;;4.67;;
80278;SDS011;70683;52.492;13.416;2023-12-20T03:06:20;6.87;;;4.92;;
80278;SDS011;70683;52.492;13.416;2023-12-20T03:08:47;7.12;;;5.05;;
80278;SDS011;70683;52.492;13.416;2023-12-20T03:11:13;10.38;;;5.80;;
80278;SDS011;70683;52.492;13.416;2023-12-20T03:13:40;9.40;;;5.67;;
80278;SDS011;70683;52.492;13.416;2023-12-20T03:16:08;8.38;;;4.35;;
80278;SDS011;70683;52.492;13.416;2023-12-20T03:18:35;9.20;;;5.15;;
80278;SDS011;70683;52.492;13.416;2023-12-20T03:21:02;9.50;;;5.53;;
80278;SDS011;70683;52.492;13.416;2023-12-20T03:23:30;10.50;;;5.28;;
80278;SDS011;70683;52.492;13.416;2023-12-20T03:25:58;14.20;;;5.17;;
80278;SDS011;70683;52.492;13.416;2023-12-20T03:28:25;10.90;;;4.58;;
80278;SDS011;70683;52.492;13.416;2023-12-20T03:30:52;16.00;;;3.95;;
80278;SDS011;70683;52.492;13.416;2023-12-20T03:33:19;10.43;;;3.17;;
80278;SDS011;70683;52.492;13.416;2023-12-20T03:35:46;8.40;;;3.52;;
80278;SDS011;70683;52.492;13.416;2023-12-20T03:38:13;9.75;;;3.47;;
80278;SDS011;70683;52.492;13.416;2023-12-20T03:40:39;9.85;;;3.55;;
80278;SDS011;70683;52.492;13.416;2023-12-20T03:43:06;9.80;;;3.27;;
80278;SDS011;70683;52.492;13.416;2023-12-20T03:45:33;14.80;;;3.67;;
80278;SDS011;70683;52.492;13.416;2023-12-20T03:47:59;12.13;;;3.72;;
80278;SDS011;70683;52.492;13.416;2023-12-20T03:50:26;7.08;;;3.40;;
80278;SDS011;70683;52.492;13.416;2023-12-20T03:52:54;11.48;;;3.30;;
80278;SDS011;70683;52.492;13.416;2023-12-20T03:55:21;9.78;;;3.42;;
80278;SDS011;70683;52.492;13.416;2023-12-20T03:57:47;13.58;;;3.98;;
80278;SDS011;70683;52.492;13.416;2023-12-20T04:00:14;11.22;;;2.92;;
80278;SDS011;70683;52.492;13.416;2023-12-20T04:02:41;16.45;;;2.90;;
80278;SDS011;70683;52.492;13.416;2023-12-20T04:05:08;7.37;;;2.42;;
80278;SDS011;70683;52.492;13.416;2023-12-20T04:07:36;9.65;;;2.30;;
80278;SDS011;70683;52.492;13.416;2023-12-20T04:10:03;14.13;;;2.85;;
80278;SDS011;70683;52.492;13.416;2023-12-20T04:12:30;7.47;;;2.17;;
80278;SDS011;70683;52.492;13.416;2023-12-20T04:14:59;10.20;;;2.22;;
80278;SDS011;70683;52.492;13.416;2023-12-20T04:17:25;9.08;;;1.90;;
80278;SDS011;70683;52.492;13.416;2023-12-20T04:19:52;11.97;;;1.70;;
80278;SDS011;70683;52.492;13.416;2023-12-20T04:22:18;9.45;;;1.90;;
80278;SDS011;70683;52.492;13.416;2023-12-20T04:24:45;7.22;;;1.75;;
80278;SDS011;70683;52.492;13.416;2023-12-20T04:27:11;9.68;;;2.45;;
80278;SDS011;70683;52.492;13.416;2023-12-20T04:29:38;3.42;;;1.72;;
80278;SDS011;70683;52.492;13.416;2023-12-20T04:32:05;11.73;;;2.35;;
80278;SDS011;70683;52.492;13.416;2023-12-20T04:34:32;16.15;;;2.05;;
80278;SDS011;70683;52.492;13.416;2023-12-20T04:36:58;7.25;;;1.75;;
80278;SDS011;70683;52.492;13.416;2023-12-20T04:39:27;9.03;;;1.82;;
80278;SDS011;70683;52.492;13.416;2023-12-20T04:41:53;8.58;;;2.15;;
80278;SDS011;70683;52.492;13.416;2023-12-20T04:44:20;9.15;;;1.98;;
80278;SDS011;70683;52.492;13.416;2023-12-20T04:46:47;10.82;;;2.45;;
80278;SDS011;70683;52.492;13.416;2023-12-20T04:49:13;13.58;;;2.62;;
80278;SDS011;70683;52.492;13.416;2023-12-20T04:51:40;12.50;;;2.00;;
80278;SDS011;70683;52.492;13.416;2023-12-20T04:54:06;9.03;;;1.95;;
80278;SDS011;70683;52.492;13.416;2023-12-20T04:56:33;8.53;;;1.98;;
80278;SDS011;70683;52.492;13.416;2023-12-20T04:59:00;15.50;;;2.52;;
80278;SDS011;70683;52.492;13.416;2023-12-20T05:01:26;6.72;;;1.62;;
80278;SDS011;70683;52.492;13.416;2023-12-20T05:03:53;14.07;;;2.58;;
80278;SDS011;70683;52.492;13.416;2023-12-20T05:06:20;12.75;;;2.65;;
80278;SDS011;70683;52.492;13.416;2023-12-20T05:08:46;10.65;;;2.22;;
80278;SDS011;70683;52.492;13.416;2023-12-20T05:11:13;11.43;;;3.08;;
80278;SDS011;70683;52.492;13.416;2023-12-20T05:13:40;17.10;;;2.45;;
80278;SDS011;70683;52.492;13.416;2023-12-20T05:16:08;8.13;;;2.20;;
80278;SDS011;70683;52.492;13.416;2023-12-20T05:18:34;8.75;;;2.17;;
80278;SDS011;70683;52.492;13.416;2023-12-20T05:21:01;8.93;;;2.55;;
80278;SDS011;70683;52.492;13.416;2023-12-20T05:23:28;8.70;;;1.90;;
80278;SDS011;70683;52.492;13.416;2023-12-20T05:25:55;10.00;;;2.67;;
80278;SDS011;70683;52.492;13.416;2023-12-20T05:28:21;7.60;;;2.75;;
80278;SDS011;70683;52.492;13.416;2023-12-20T05:30:48;13.60;;;3.37;;
80278;SDS011;70683;52.492;13.416;2023-12-20T05:33:15;11.68;;;3.17;;
80278;SDS011;70683;52.492;13.416;2023-12-20T05:35:41;13.38;;;2.70;;
80278;SDS011;70683;52.492;13.416;2023-12-20T05:38:08;12.98;;;2.45;;
80278;SDS011;70683;52.492;13.416;2023-12-20T05:40:36;11.28;;;2.85;;
80278;SDS011;70683;52.492;13.416;2023-12-20T05:43:03;13.15;;;2.42;;
80278;SDS011;70683;52.492;13.416;2023-12-20T05:45:30;8.23;;;2.10;;
80278;SDS011;70683;52.492;13.416;2023-12-20T05:47:56;15.10;;;2.20;;
80278;SDS011;70683;52.492;13.416;2023-12-20T05:50:24;16.12;;;2.12;;
80278;SDS011;70683;52.492;13.416;2023-12-20T05:52:50;7.47;;;2.12;;
80278;SDS011;70683;52.492;13.416;2023-12-20T05:55:17;9.70;;;2.25;;
80278;SDS011;70683;52.492;13.416;2023-12-20T05:57:44;19.60;;;3.00;;
80278;SDS011;70683;52.492;13.416;2023-12-20T06:00:10;11.83;;;2.12;;
80278;SDS011;70683;52.492;13.416;2023-12-20T06:02:38;12.25;;;1.72;;
80278;SDS011;70683;52.492;13.416;2023-12-20T06:05:05;15.55;;;2.35;;
80278;SDS011;70683;52.492;13.416;2023-12-20T06:07:32;11.90;;;1.60;;
80278;SDS011;70683;52.492;13.416;2023-12-20T06:09:59;7.55;;;2.15;;
80278;SDS011;70683;52.492;13.416;2023-12-20T06:12:26;12.80;;;2.55;;
80278;SDS011;70683;52.492;13.416;2023-12-20T06:14:54;10.53;;;2.30;;
80278;SDS011;70683;52.492;13.416;2023-12-20T06:17:21;12.88;;;2.55;;
80278;SDS011;70683;52.492;13.416;2023-12-20T06:19:47;11.10;;;2.05;;
80278;SDS011;70683;52.492;13.416;2023-12-20T06:22:15;13.30;;;2.15;;
80278;SDS011;70683;52.492;13.416;2023-12-20T06:24:41;8.90;;;2.05;;
80278;SDS011;70683;52.492;13.416;2023-12-20T06:27:08;8.30;;;2.50;;
80278;SDS011;70683;52.492;13.416;2023-12-20T06:29:35;22.00;;;2.72;;
80278;SDS011;70683;52.492;13.416;2023-12-20T06:32:02;10.13;;;1.90;;
80278;SDS011;70683;52.492;13.416;2023-12-20T06:34:29;11.97;;;2.62;;
80278;SDS011;70683;52.492;13.416;2023-12-20T06:36:55;12.40;;;2.15;;
80278;SDS011;70683;52.492;13.416;2023-12-20T06:39:22;5.58;;;2.00;;
80278;SDS011;70683;52.492;13.416;2023-12-20T06:41:48;10.95;;;2.15;;
80278;SDS011;70683;52.492;13.416;2023-12-20T06:44:15;13.90;;;2.33;;
80278;SDS011;70683;52.492;13.416;2023-12-20T06:46:41;11.65;;;2.70;;
80278;SDS011;70683;52.492;13.416;2023-12-20T06:49:09;9.85;;;2.00;;
80278;SDS011;70683;52.492;13.416;2023-12-20T06:51:36;7.80;;;2.27;;
80278;SDS011;70683;52.492;13.416;2023-12-20T06:54:02;9.63;;;2.10;;
80278;SDS011;70683;52.492;13.416;2023-12-20T06:56:29;6.33;;;1.90;;
80278;SDS011;70683;52.492;13.416;2023-12-20T06:58:56;8.35;;;2.92;;
80278;SDS011;70683;52.492;13.416;2023-12-20T07:01:22;17.35;;;3.02;;
80278;SDS011;70683;52.492;13.416;2023-12-20T07:03:49;7.45;;;2.30;;
80278;SDS011;70683;52.492;13.416;2023-12-20T07:06:16;7.22;;;1.95;;
80278;SDS011;70683;52.492;13.416;2023-12-20T07:08:42;11.80;;;2.08;;
80278;SDS011;70683;52.492;13.416;2023-12-20T07:11:09;10.25;;;2.08;;
80278;SDS011;70683;52.492;13.416;2023-12-20T07:13:36;15.65;;;2.60;;
80278;SDS011;70683;52.492;13.416;2023-12-20T07:16:02;5.90;;;1.60;;
80278;SDS011;70683;52.492;13.416;2023-12-20T07:18:29;13.28;;;2.65;;
80278;SDS011;70683;52.492;13.416;2023-12-20T07:20:56;17.00;;;2.92;;
80278;SDS011;70683;52.492;13.416;2023-12-20T07:23:22;14.98;;;2.12;;
80278;SDS011;70683;52.492;13.416;2023-12-20T07:25:49;15.32;;;2.60;;
80278;SDS011;70683;52.492;13.416;2023-12-20T07:28:16;19.32;;;2.35;;
80278;SDS011;70683;52.492;13.416;2023-12-20T07:30:42;10.82;;;2.72;;
80278;SDS011;70683;52.492;13.416;2023-12-20T07:33:09;12.90;;;2.62;;
80278;SDS011;70683;52.492;13.416;2023-12-20T07:35:37;8.95;;;2.08;;
80278;SDS011;70683;52.492;13.416;2023-12-20T07:38:04;16.07;;;2.08;;
80278;SDS011;70683;52.492;13.416;2023-12-20T07:40:32;7.92;;;2.27;;
80278;SDS011;70683;52.492;13.416;2023-12-20T07:42:58;8.18;;;1.95;;
80278;SDS011;70683;52.492;13.416;2023-12-20T07:45:25;10.53;;;1.98;;
80278;SDS011;70683;52.492;13.416;2023-12-20T07:47:52;11.40;;;2.50;;
80278;SDS011;70683;52.492;13.416;2023-12-20T07:50:19;6.87;;;2.47;;
80278;SDS011;70683;52.492;13.416;2023-12-20T07:52:45;9.08;;;2.12;;
80278;SDS011;70683;52.492;13.416;2023-12-20T07:55:12;12.47;;;3.17;;
80278;SDS011;70683;52.492;13.416;2023-12-20T07:57:39;10.10;;;2.75;;
80278;SDS011;70683;52.492;13.416;2023-12-20T08:00:05;10.90;;;3.22;;
80278;SDS011;70683;52.492;13.416;2023-12-20T08:02:33;14.70;;;3.25;;
80278;SDS011;70683;52.492;13.416;2023-12-20T08:04:59;10.58;;;2.77;;
80278;SDS011;70683;52.492;13.416;2023-12-20T08:07:26;11.75;;;3.35;;
80278;SDS011;70683;52.492;13.416;2023-12-20T08:09:52;9.05;;;2.12;;
80278;SDS011;70683;52.492;13.416;2023-12-20T08:12:20;8.30;;;2.72;;
80278;SDS011;70683;52.492;13.416;2023-12-20T08:14:47;7.12;;;2.98;;
80278;SDS011;70683;52.492;13.416;2023-12-20T08:17:13;17.60;;;3.37;;
80278;SDS011;70683;52.492;13.416;2023-12-20T08:19:41;15.63;;;4.72;;
80278;SDS011;70683;52.492;13.416;2023-12-20T08:22:08;13.22;;;4.80;;
80278;SDS011;70683;52.492;13.416;2023-12-20T08:24:35;19.00;;;4.67;;
80278;SDS011;70683;52.492;13.416;2023-12-20T08:27:01;20.20;;;4.40;;
80278;SDS011;70683;52.492;13.416;2023-12-20T08:29:28;11.53;;;3.20;;
80278;SDS011;70683;52.492;13.416;2023-12-20T08:31:55;16.85;;;3.70;;
80278;SDS011;70683;52.492;13.416;2023-12-20T08:34:22;14.87;;;3.10;;
80278;SDS011;70683;52.492;13.416;2023-12-20T08:36:50;11.43;;;3.08;;
80278;SDS011;70683;52.492;13.416;2023-12-20T08:39:18;13.45;;;2.35;;
80278;SDS011;70683;52.492;13.416;2023-12-20T08:41:44;12.50;;;2.65;;
80278;SDS011;70683;52.492;13.416;2023-12-20T08:44:11;9.28;;;2.45;;
80278;SDS011;70683;52.492;13.416;2023-12-20T08:46:38;9.05;;;2.35;;
80278;SDS011;70683;52.492;13.416;2023-12-20T08:49:05;16.97;;;2.52;;
80278;SDS011;70683;52.492;13.416;2023-12-20T08:51:32;8.20;;;2.20;;
80278;SDS011;70683;52.492;13.416;2023-12-20T08:53:59;12.13;;;2.70;;
80278;SDS011;70683;52.492;13.416;2023-12-20T08:56:26;12.63;;;2.37;;
80278;SDS011;70683;52.492;13.416;2023-12-20T08:58:52;11.48;;;1.80;;
80278;SDS011;70683;52.492;13.416;2023-12-20T09:01:19;15.00;;;3.02;;
80278;SDS011;70683;52.492;13.416;2023-12-20T09:03:45;11.68;;;2.87;;
80278;SDS011;70683;52.492;13.416;2023-12-20T09:06:12;9.08;;;3.27;;
80278;SDS011;70683;52.492;13.416;2023-12-20T09:08:44;16.12;;;3.10;;
80278;SDS011;70683;52.492;13.416;2023-12-20T09:11:11;7.97;;;2.17;;
80278;SDS011;70683;52.492;13.416;2023-12-20T09:13:38;14.33;;;2.83;;
80278;SDS011;70683;52.492;13.416;2023-12-20T09:16:04;14.78;;;2.10;;
80278;SDS011;70683;52.492;13.416;2023-12-20T09:18:32;10.03;;;2.30;;
80278;SDS011;70683;52.492;13.416;2023-12-20T09:20:58;13.50;;;2.50;;
80278;SDS011;70683;52.492;13.416;2023-12-20T09:23:25;13.78;;;3.12;;
80278;SDS011;70683;52.492;13.416;2023-12-20T09:25:52;14.23;;;3.87;;
80278;SDS011;70683;52.492;13.416;2023-12-20T09:28:18;12.33;;;2.85;;
80278;SDS011;70683;52.492;13.416;2023-12-20T09:30:45;19.27;;;4.12;;
80278;SDS011;70683;52.492;13.416;2023-12-20T09:33:13;15.20;;;3.17;;
80278;SDS011;70683;52.492;13.416;2023-12-20T09:35:42;13.38;;;2.60;;
80278;SDS011;70683;52.492;13.416;2023-12-20T09:38:09;11.57;;;3.20;;
80278;SDS011;70683;52.492;13.416;2023-12-20T09:40:36;15.45;;;2.47;;
80278;SDS011;70683;52.492;13.416;2023-12-20T09:43:10;21.40;;;3.50;;
80278;SDS011;70683;52.492;13.416;2023-12-20T09:45:39;16.32;;;3.45;;
80278;SDS011;70683;52.492;13.416;2023-12-20T09:48:07;9.70;;;3.05;;
80278;SDS011;70683;52.492;13.416;2023-12-20T09:50:35;12.10;;;3.22;;
80278;SDS011;70683;52.492;13.416;2023-12-20T09:53:02;11.68;;;2.30;;
80278;SDS011;70683;52.492;13.416;2023-12-20T09:55:31;16.15;;;3.15;;
80278;SDS011;70683;52.492;13.416;2023-12-20T09:57:59;17.12;;;3.72;;
80278;SDS011;70683;52.492;13.416;2023-12-20T10:00:26;10.13;;;2.83;;
80278;SDS011;70683;52.492;13.416;2023-12-20T10:03:00;12.20;;;2.72;;
80278;SDS011;70683;52.492;13.416;2023-12-20T10:05:27;16.40;;;2.75;;
80278;SDS011;70683;52.492;13.416;2023-12-20T10:07:55;8.93;;;3.08;;
80278;SDS011;70683;52.492;13.416;2023-12-20T10:10:22;8.38;;;1.85;;
80278;SDS011;70683;52.492;13.416;2023-12-20T10:15:34;11.80;;;2.67;;
80278;SDS011;70683;52.492;13.416;2023-12-20T10:18:01;15.30;;;3.12;;
80278;SDS011;70683;52.492;13.416;2023-12-20T10:20:29;15.23;;;2.70;;
80278;SDS011;70683;52.492;13.416;2023-12-20T10:22:56;8.88;;;2.33;;
80278;SDS011;70683;52.492;13.416;2023-12-20T10:25:24;11.25;;;2.72;;
80278;SDS011;70683;52.492;13.416;2023-12-20T10:28:23;14.23;;;3.05;;
80278;SDS011;70683;52.492;13.416;2023-12-20T10:30:39;12.53;;;2.55;;
80278;SDS011;70683;52.492;13.416;2023-12-20T10:33:07;9.83;;;2.30;;
80278;SDS011;70683;52.492;13.416;2023-12-20T10:35:34;15.53;;;2.95;;
80278;SDS011;70683;52.492;13.416;2023-12-20T10:38:04;12.30;;;2.17;;
80278;SDS011;70683;52.492;13.416;2023-12-20T10:40:34;9.43;;;2.20;;
80278;SDS011;70683;52.492;13.416;2023-12-20T10:43:04;11.03;;;2.27;;
80278;SDS011;70683;52.492;13.416;2023-12-20T10:45:31;10.48;;;2.60;;
80278;SDS011;70683;52.492;13.416;2023-12-20T10:47:58;10.53;;;2.20;;
80278;SDS011;70683;52.492;13.416;2023-12-20T10:50:26;11.45;;;2.58;;
80278;SDS011;70683;52.492;13.416;2023-12-20T10:52:55;15.50;;;2.35;;
80278;SDS011;70683;52.492;13.416;2023-12-20T10:55:23;13.13;;;2.30;;
80278;SDS011;70683;52.492;13.416;2023-12-20T10:57:51;13.65;;;2.33;;
80278;SDS011;70683;52.492;13.416;2023-12-20T11:00:19;17.23;;;2.92;;
80278;SDS011;70683;52.492;13.416;2023-12-20T11:02:48;15.93;;;2.17;;
80278;SDS011;70683;52.492;13.416;2023-12-20T11:05:25;11.85;;;2.50;;
80278;SDS011;70683;52.492;13.416;2023-12-20T11:07:58;11.85;;;2.17;;
80278;SDS011;70683;52.492;13.416;2023-12-20T11:10:31;10.63;;;2.50;;
80278;SDS011;70683;52.492;13.416;2023-12-20T11:13:05;9.48;;;2.15;;
80278;SDS011;70683;52.492;13.416;2023-12-20T11:15:37;12.78;;;3.40;;
80278;SDS011;70683;52.492;13.416;2023-12-20T11:18:04;13.38;;;3.55;;
80278;SDS011;70683;52.492;13.416;2023-12-20T11:20:37;23.07;;;4.17;;
80278;SDS011;70683;52.492;13.416;2023-12-20T11:23:06;14.43;;;4.35;;
80278;SDS011;70683;52.492;13.416;2023-12-20T11:25:45;24.82;;;6.15;;
80278;SDS011;70683;52.492;13.416;2023-12-20T11:28:10;16.70;;;4.62;;
80278;SDS011;70683;52.492;13.416;2023-12-20T11:30:42;13.35;;;3.62;;
80278;SDS011;70683;52.492;13.416;2023-12-20T11:33:11;11.97;;;3.50;;
80278;SDS011;70683;52.492;13.416;2023-12-20T11:35:39;23.75;;;6.90;;
80278;SDS011;70683;52.492;13.416;2023-12-20T11:38:08;16.70;;;4.22;;
80278;SDS011;70683;52.492;13.416;2023-12-20T11:40:36;18.42;;;3.35;;
80278;SDS011;70683;52.492;13.416;2023-12-20T11:43:03;21.02;;;2.87;;
80278;SDS011;70683;52.492;13.416;2023-12-20T11:45:31;13.50;;;3.15;;
80278;SDS011;70683;52.492;13.416;2023-12-20T11:47:58;11.15;;;2.42;;
80278;SDS011;70683;52.492;13.416;2023-12-20T11:50:24;13.18;;;2.40;;
80278;SDS011;70683;52.492;13.416;2023-12-20T11:52:52;15.95;;;2.90;;
80278;SDS011;70683;52.492;13.416;2023-12-20T11:55:23;11.93;;;2.98;;
80278;SDS011;70683;52.492;13.416;2023-12-20T11:57:50;11.48;;;3.67;;
80278;SDS011;70683;52.492;13.416;2023-12-20T12:00:17;13.28;;;2.92;;
80278;SDS011;70683;52.492;13.416;2023-12-20T12:02:54;9.55;;;2.37;;
80278;SDS011;70683;52.492;13.416;2023-12-20T12:05:19;11.10;;;2.47;;
80278;SDS011;70683;52.492;13.416;2023-12-20T12:07:45;12.78;;;2.27;;
80278;SDS011;70683;52.492;13.416;2023-12-20T12:10:12;14.38;;;2.02;;
80278;SDS011;70683;52.492;13.416;2023-12-20T12:12:39;10.00;;;2.45;;
80278;SDS011;70683;52.492;13.416;2023-12-20T12:15:06;10.93;;;2.27;;
80278;SDS011;70683;52.492;13.416;2023-12-20T12:17:34;9.78;;;2.00;;
80278;SDS011;70683;52.492;13.416;2023-12-20T12:20:03;9.93;;;2.80;;
80278;SDS011;70683;52.492;13.416;2023-12-20T12:22:31;15.03;;;2.85;;
80278;SDS011;70683;52.492;13.416;2023-12-20T12:24:59;12.20;;;2.08;;
80278;SDS011;70683;52.492;13.416;2023-12-20T12:27:28;6.53;;;1.77;;
80278;SDS011;70683;52.492;13.416;2023-12-20T12:30:00;19.77;;;2.58;;
80278;SDS011;70683;52.492;13.416;2023-12-20T12:32:28;12.60;;;2.10;;
80278;SDS011;70683;52.492;13.416;2023-12-20T12:34:55;9.93;;;2.17;;
80278;SDS011;70683;52.492;13.416;2023-12-20T12:37:22;10.40;;;2.42;;
80278;SDS011;70683;52.492;13.416;2023-12-20T12:39:50;7.92;;;1.95;;
80278;SDS011;70683;52.492;13.416;2023-12-20T12:42:18;12.30;;;3.08;;
80278;SDS011;70683;52.492;13.416;2023-12-20T12:44:46;14.70;;;4.03;;
80278;SDS011;70683;52.492;13.416;2023-12-20T12:47:13;8.53;;;2.40;;
80278;SDS011;70683;52.492;13.416;2023-12-20T12:49:40;17.23;;;4.12;;
80278;SDS011;70683;52.492;13.416;2023-12-20T12:52:07;13.78;;;2.75;;
80278;SDS011;70683;52.492;13.416;2023-12-20T12:54:33;18.23;;;5.25;;
80278;SDS011;70683;52.492;13.416;2023-12-20T12:57:00;18.57;;;3.87;;
80278;SDS011;70683;52.492;13.416;2023-12-20T12:59:26;17.20;;;3.77;;
80278;SDS011;70683;52.492;13.416;2023-12-20T13:01:53;12.45;;;3.25;;
80278;SDS011;70683;52.492;13.416;2023-12-20T13:04:20;20.20;;;4.12;;
80278;SDS011;70683;52.492;13.416;2023-12-20T13:06:46;10.45;;;2.52;;
80278;SDS011;70683;52.492;13.416;2023-12-20T13:09:13;11.60;;;3.00;;
80278;SDS011;70683;52.492;13.416;2023-12-20T13:11:41;17.00;;;3.58;;
80278;SDS011;70683;52.492;13.416;2023-12-20T13:14:07;14.65;;;3.65;;
80278;SDS011;70683;52.492;13.416;2023-12-20T13:16:36;14.50;;;3.52;;
80278;SDS011;70683;52.492;13.416;2023-12-20T13:19:03;14.18;;;2.92;;
80278;SDS011;70683;52.492;13.416;2023-12-20T13:21:30;15.35;;;2.85;;
80278;SDS011;70683;52.492;13.416;2023-12-20T13:23:57;13.62;;;3.20;;
80278;SDS011;70683;52.492;13.416;2023-12-20T13:26:23;10.43;;;3.37;;
80278;SDS011;70683;52.492;13.416;2023-12-20T13:28:50;11.30;;;3.60;;
80278;SDS011;70683;52.492;13.416;2023-12-20T13:31:17;11.10;;;3.55;;
80278;SDS011;70683;52.492;13.416;2023-12-20T13:33:45;10.60;;;2.87;;
80278;SDS011;70683;52.492;13.416;2023-12-20T13:36:12;7.30;;;2.50;;
80278;SDS011;70683;52.492;13.416;2023-12-20T13:38:39;4.42;;;1.60;;
80278;SDS011;70683;52.492;13.416;2023-12-20T13:41:06;4.33;;;1.27;;
80278;SDS011;70683;52.492;13.416;2023-12-20T13:43:33;6.42;;;1.25;;
80278;SDS011;70683;52.492;13.416;2023-12-20T13:46:01;3.87;;;1.07;;
80278;SDS011;70683;52.492;13.416;2023-12-20T13:48:28;3.27;;;0.98;;
80278;SDS011;70683;52.492;13.416;2023-12-20T13:50:55;4.37;;;1.20;;
80278;SDS011;70683;52.492;13.416;2023-12-20T13:53:21;5.60;;;1.72;;
80278;SDS011;70683;52.492;13.416;2023-12-20T14:01:18;2.42;;;1.52;;
80278;SDS011;70683;52.492;13.416;2023-12-20T14:03:44;3.08;;;1.05;;
80278;SDS011;70683;52.492;13.416;2023-12-20T14:06:12;4.55;;;1.50;;
80278;SDS011;70683;52.492;13.416;2023-12-20T14:08:40;5.58;;;1.32;;
80278;SDS011;70683;52.492;13.416;2023-12-20T14:11:08;3.83;;;1.20;;
80278;SDS011;70683;52.492;13.416;2023-12-20T14:13:34;6.95;;;1.30;;
80278;SDS011;70683;52.492;13.416;2023-12-20T14:16:01;5.62;;;1.70;;
80278;SDS011;70683;52.492;13.416;2023-12-20T14:18:29;5.90;;;1.40;;
80278;SDS011;70683;52.492;13.416;2023-12-20T14:20:56;1.32;;;0.80;;
80278;SDS011;70683;52.492;13.416;2023-12-20T14:23:22;7.35;;;1.10;;
80278;SDS011;70683;52.492;13.416;2023-12-20T14:25:49;5.08;;;0.95;;
80278;SDS011;70683;52.492;13.416;2023-12-20T14:28:16;8.20;;;1.40;;
80278;SDS011;70683;52.492;13.416;2023-12-20T14:30:43;5.83;;;0.72;;
80278;SDS011;70683;52.492;13.416;2023-12-20T14:33:10;3.47;;;0.75;;
80278;SDS011;70683;52.492;13.416;2023-12-20T14:35:36;3.00;;;0.70;;